sensor_id;sensor_type;location;lat;lon;timestamp;P1;durP1;ratioP1;P2;durP2;ratioP2
4595;SDS011;2310;49.978;8.742;2023-05-21T00:03:48;23.80;;;19.00;;
4595;SDS011;2310;49.978;8.742;2023-05-21T00:07:50;20.80;;;18.43;;
4595;SDS011;2310;49.978;8.742;2023-05-21T00:11:53;21.83;;;19.17;;
4595;SDS011;2310;49.978;8.742;2023-05-21T00:15:54;24.63;;;19.70;;
4595;SDS011;2310;49.978;8.742;2023-05-21T00:19:55;22.40;;;18.03;;
4595;SDS011;2310;49.978;8.742;2023-05-21T00:23:57;20.27;;;18.03;;
4595;SDS011;2310;49.978;8.742;2023-05-21T00:27:58;20.20;;;17.20;;
4595;SDS011;2310;49.978;8.742;2023-05-21T00:31:59;22.67;;;17.63;;
4595;SDS011;2310;49.978;8.742;2023-05-21T00:36:01;20.30;;;17.63;;
4595;SDS011;2310;49.978;8.742;2023-05-21T00:40:03;25.47;;;19.20;;
4595;SDS011;2310;49.978;8.742;2023-05-21T00:44:07;20.67;;;18.27;;
4595;SDS011;2310;49.978;8.742;2023-05-21T00:48:09;21.80;;;17.93;;
4595;SDS011;2310;49.978;8.742;2023-05-21T00:52:13;20.63;;;17.50;;
4595;SDS011;2310;49.978;8.742;2023-05-21T00:56:18;21.53;;;18.60;;
4595;SDS011;2310;49.978;8.742;2023-05-21T01:00:22;22.10;;;18.00;;
4595;SDS011;2310;49.978;8.742;2023-05-21T01:04:26;21.27;;;18.70;;
4595;SDS011;2310;49.978;8.742;2023-05-21T01:08:28;22.03;;;19.27;;
4595;SDS011;2310;49.978;8.742;2023-05-21T01:12:30;22.10;;;16.53;;
4595;SDS011;2310;49.978;8.742;2023-05-21T01:16:33;21.90;;;18.67;;
4595;SDS011;2310;49.978;8.742;2023-05-21T01:20:37;21.87;;;18.30;;
4595;SDS011;2310;49.978;8.742;2023-05-21T01:24:39;21.83;;;18.20;;
4595;SDS011;2310;49.978;8.742;2023-05-21T01:28:41;20.90;;;17.53;;
4595;SDS011;2310;49.978;8.742;2023-05-21T01:36:56;21.30;;;17.77;;
4595;SDS011;2310;49.978;8.742;2023-05-21T01:41:01;23.20;;;20.30;;
4595;SDS011;2310;49.978;8.742;2023-05-21T01:45:03;23.30;;;18.63;;
4595;SDS011;2310;49.978;8.742;2023-05-21T01:49:07;23.47;;;19.00;;
4595;SDS011;2310;49.978;8.742;2023-05-21T01:53:10;21.53;;;19.23;;
4595;SDS011;2310;49.978;8.742;2023-05-21T01:57:12;22.17;;;19.77;;
4595;SDS011;2310;49.978;8.742;2023-05-21T02:01:13;20.70;;;17.73;;
4595;SDS011;2310;49.978;8.742;2023-05-21T02:05:14;23.20;;;19.00;;
4595;SDS011;2310;49.978;8.742;2023-05-21T02:09:16;21.07;;;18.87;;
4595;SDS011;2310;49.978;8.742;2023-05-21T02:13:17;22.30;;;19.70;;
4595;SDS011;2310;49.978;8.742;2023-05-21T02:17:24;21.17;;;17.80;;
4595;SDS011;2310;49.978;8.742;2023-05-21T02:21:26;24.30;;;19.23;;
4595;SDS011;2310;49.978;8.742;2023-05-21T02:25:27;24.63;;;20.30;;
4595;SDS011;2310;49.978;8.742;2023-05-21T02:29:28;22.57;;;18.10;;
4595;SDS011;2310;49.978;8.742;2023-05-21T02:33:29;27.07;;;19.33;;
4595;SDS011;2310;49.978;8.742;2023-05-21T02:37:31;19.87;;;17.63;;
4595;SDS011;2310;49.978;8.742;2023-05-21T02:41:35;22.27;;;18.00;;
4595;SDS011;2310;49.978;8.742;2023-05-21T02:45:38;22.53;;;19.70;;
4595;SDS011;2310;49.978;8.742;2023-05-21T02:49:40;23.43;;;19.50;;
4595;SDS011;2310;49.978;8.742;2023-05-21T02:53:41;19.87;;;17.77;;
4595;SDS011;2310;49.978;8.742;2023-05-21T02:57:42;24.00;;;19.57;;
4595;SDS011;2310;49.978;8.742;2023-05-21T03:01:43;20.60;;;17.23;;
4595;SDS011;2310;49.978;8.742;2023-05-21T03:05:45;22.90;;;19.60;;
4595;SDS011;2310;49.978;8.742;2023-05-21T03:09:46;25.10;;;20.90;;
4595;SDS011;2310;49.978;8.742;2023-05-21T03:13:47;23.10;;;18.47;;
4595;SDS011;2310;49.978;8.742;2023-05-21T03:17:49;23.53;;;19.93;;
4595;SDS011;2310;49.978;8.742;2023-05-21T03:21:53;21.23;;;17.70;;
4595;SDS011;2310;49.978;8.742;2023-05-21T03:25:56;22.90;;;17.57;;
4595;SDS011;2310;49.978;8.742;2023-05-21T03:29:57;23.20;;;20.00;;
4595;SDS011;2310;49.978;8.742;2023-05-21T03:33:59;21.40;;;19.10;;
4595;SDS011;2310;49.978;8.742;2023-05-21T03:38:00;21.90;;;17.97;;
4595;SDS011;2310;49.978;8.742;2023-05-21T03:42:01;21.23;;;19.03;;
4595;SDS011;2310;49.978;8.742;2023-05-21T03:46:03;21.93;;;19.53;;
4595;SDS011;2310;49.978;8.742;2023-05-21T03:50:04;21.37;;;19.00;;
4595;SDS011;2310;49.978;8.742;2023-05-21T03:54:06;22.17;;;19.87;;
4595;SDS011;2310;49.978;8.742;2023-05-21T03:58:08;25.50;;;21.27;;
4595;SDS011;2310;49.978;8.742;2023-05-21T04:02:10;21.83;;;19.57;;
4595;SDS011;2310;49.978;8.742;2023-05-21T04:06:12;21.37;;;17.57;;
4595;SDS011;2310;49.978;8.742;2023-05-21T04:10:13;26.67;;;20.90;;
4595;SDS011;2310;49.978;8.742;2023-05-21T04:14:14;22.83;;;19.20;;
4595;SDS011;2310;49.978;8.742;2023-05-21T04:18:16;22.87;;;19.70;;
4595;SDS011;2310;49.978;8.742;2023-05-21T04:22:17;21.23;;;18.90;;
4595;SDS011;2310;49.978;8.742;2023-05-21T04:26:18;22.73;;;19.03;;
4595;SDS011;2310;49.978;8.742;2023-05-21T04:30:19;21.53;;;17.57;;
4595;SDS011;2310;49.978;8.742;2023-05-21T04:34:21;19.30;;;17.30;;
4595;SDS011;2310;49.978;8.742;2023-05-21T04:38:23;23.37;;;18.30;;
4595;SDS011;2310;49.978;8.742;2023-05-21T04:42:25;22.50;;;18.53;;
4595;SDS011;2310;49.978;8.742;2023-05-21T04:46:27;20.27;;;18.10;;
4595;SDS011;2310;49.978;8.742;2023-05-21T04:51:07;19.33;;;17.10;;
4595;SDS011;2310;49.978;8.742;2023-05-21T04:55:09;22.23;;;18.00;;
4595;SDS011;2310;49.978;8.742;2023-05-21T04:59:10;23.03;;;20.63;;
4595;SDS011;2310;49.978;8.742;2023-05-21T05:03:11;20.93;;;18.83;;
4595;SDS011;2310;49.978;8.742;2023-05-21T05:07:13;20.37;;;18.03;;
4595;SDS011;2310;49.978;8.742;2023-05-21T05:11:15;22.47;;;18.87;;
4595;SDS011;2310;49.978;8.742;2023-05-21T05:15:16;23.27;;;20.27;;
4595;SDS011;2310;49.978;8.742;2023-05-21T05:19:17;21.63;;;18.80;;
4595;SDS011;2310;49.978;8.742;2023-05-21T05:23:19;21.50;;;19.40;;
4595;SDS011;2310;49.978;8.742;2023-05-21T05:27:20;23.37;;;19.43;;
4595;SDS011;2310;49.978;8.742;2023-05-21T05:31:22;20.60;;;18.50;;
4595;SDS011;2310;49.978;8.742;2023-05-21T05:35:23;20.77;;;18.50;;
4595;SDS011;2310;49.978;8.742;2023-05-21T05:39:24;21.10;;;18.30;;
4595;SDS011;2310;49.978;8.742;2023-05-21T05:43:26;21.37;;;18.80;;
4595;SDS011;2310;49.978;8.742;2023-05-21T05:47:27;21.73;;;19.47;;
4595;SDS011;2310;49.978;8.742;2023-05-21T05:51:28;21.40;;;19.10;;
4595;SDS011;2310;49.978;8.742;2023-05-21T05:55:30;21.03;;;19.00;;
4595;SDS011;2310;49.978;8.742;2023-05-21T05:59:31;23.10;;;20.67;;
4595;SDS011;2310;49.978;8.742;2023-05-21T06:03:33;20.10;;;16.87;;
4595;SDS011;2310;49.978;8.742;2023-05-21T06:07:36;23.37;;;18.40;;
4595;SDS011;2310;49.978;8.742;2023-05-21T06:11:38;21.27;;;18.40;;
4595;SDS011;2310;49.978;8.742;2023-05-21T06:15:39;21.53;;;19.23;;
4595;SDS011;2310;49.978;8.742;2023-05-21T06:19:42;21.30;;;18.57;;
4595;SDS011;2310;49.978;8.742;2023-05-21T06:23:45;23.10;;;19.80;;
4595;SDS011;2310;49.978;8.742;2023-05-21T06:27:46;24.23;;;18.47;;
4595;SDS011;2310;49.978;8.742;2023-05-21T06:31:47;20.40;;;17.53;;
4595;SDS011;2310;49.978;8.742;2023-05-21T06:35:49;21.40;;;18.73;;
4595;SDS011;2310;49.978;8.742;2023-05-21T06:39:50;18.33;;;16.37;;
4595;SDS011;2310;49.978;8.742;2023-05-21T06:43:51;20.60;;;15.90;;
4595;SDS011;2310;49.978;8.742;2023-05-21T06:47:52;21.30;;;18.97;;
4595;SDS011;2310;49.978;8.742;2023-05-21T06:51:54;18.23;;;16.40;;
4595;SDS011;2310;49.978;8.742;2023-05-21T06:55:55;19.67;;;17.67;;
4595;SDS011;2310;49.978;8.742;2023-05-21T06:59:56;20.03;;;18.03;;
4595;SDS011;2310;49.978;8.742;2023-05-21T07:03:57;19.27;;;17.27;;
4595;SDS011;2310;49.978;8.742;2023-05-21T07:07:59;20.10;;;18.00;;
4595;SDS011;2310;49.978;8.742;2023-05-21T07:12:00;17.47;;;15.67;;
4595;SDS011;2310;49.978;8.742;2023-05-21T07:16:02;19.13;;;17.10;;
4595;SDS011;2310;49.978;8.742;2023-05-21T07:20:03;19.63;;;17.67;;
4595;SDS011;2310;49.978;8.742;2023-05-21T07:24:09;19.23;;;17.33;;
4595;SDS011;2310;49.978;8.742;2023-05-21T07:28:11;20.50;;;18.50;;
4595;SDS011;2310;49.978;8.742;2023-05-21T07:32:12;19.87;;;16.70;;
4595;SDS011;2310;49.978;8.742;2023-05-21T07:36:13;18.20;;;16.50;;
4595;SDS011;2310;49.978;8.742;2023-05-21T07:40:15;18.53;;;16.83;;
4595;SDS011;2310;49.978;8.742;2023-05-21T07:44:16;19.47;;;17.67;;
4595;SDS011;2310;49.978;8.742;2023-05-21T07:48:17;17.80;;;16.10;;
4595;SDS011;2310;49.978;8.742;2023-05-21T07:52:19;17.30;;;15.63;;
4595;SDS011;2310;49.978;8.742;2023-05-21T07:56:20;18.37;;;16.50;;
4595;SDS011;2310;49.978;8.742;2023-05-21T08:00:22;18.20;;;16.40;;
4595;SDS011;2310;49.978;8.742;2023-05-21T08:04:24;16.57;;;14.83;;
4595;SDS011;2310;49.978;8.742;2023-05-21T08:08:26;16.90;;;15.10;;
4595;SDS011;2310;49.978;8.742;2023-05-21T08:12:30;19.93;;;16.47;;
4595;SDS011;2310;49.978;8.742;2023-05-21T08:16:30;19.23;;;15.37;;
4595;SDS011;2310;49.978;8.742;2023-05-21T08:20:32;16.27;;;14.70;;
4595;SDS011;2310;49.978;8.742;2023-05-21T08:24:34;18.67;;;16.80;;
4595;SDS011;2310;49.978;8.742;2023-05-21T08:28:36;18.37;;;16.30;;
4595;SDS011;2310;49.978;8.742;2023-05-21T08:32:38;16.80;;;15.00;;
4595;SDS011;2310;49.978;8.742;2023-05-21T08:36:40;18.70;;;16.90;;
4595;SDS011;2310;49.978;8.742;2023-05-21T08:40:44;16.93;;;15.33;;
4595;SDS011;2310;49.978;8.742;2023-05-21T08:44:46;16.27;;;14.67;;
4595;SDS011;2310;49.978;8.742;2023-05-21T08:48:51;16.17;;;14.50;;
4595;SDS011;2310;49.978;8.742;2023-05-21T08:52:55;16.67;;;15.23;;
4595;SDS011;2310;49.978;8.742;2023-05-21T08:56:58;15.70;;;14.17;;
4595;SDS011;2310;49.978;8.742;2023-05-21T09:01:01;16.50;;;14.90;;
4595;SDS011;2310;49.978;8.742;2023-05-21T09:05:04;14.60;;;13.10;;
4595;SDS011;2310;49.978;8.742;2023-05-21T09:09:16;16.90;;;15.27;;
4595;SDS011;2310;49.978;8.742;2023-05-21T09:13:18;15.30;;;13.87;;
4595;SDS011;2310;49.978;8.742;2023-05-21T09:17:21;16.40;;;15.00;;
4595;SDS011;2310;49.978;8.742;2023-05-21T09:21:23;15.40;;;14.00;;
4595;SDS011;2310;49.978;8.742;2023-05-21T09:25:26;16.13;;;14.57;;
4595;SDS011;2310;49.978;8.742;2023-05-21T09:29:27;16.40;;;14.90;;
4595;SDS011;2310;49.978;8.742;2023-05-21T09:33:29;14.10;;;12.90;;
4595;SDS011;2310;49.978;8.742;2023-05-21T09:37:30;14.23;;;12.87;;
4595;SDS011;2310;49.978;8.742;2023-05-21T09:41:34;13.63;;;12.43;;
4595;SDS011;2310;49.978;8.742;2023-05-21T09:45:36;14.63;;;13.27;;
4595;SDS011;2310;49.978;8.742;2023-05-21T09:49:38;14.43;;;13.07;;
4595;SDS011;2310;49.978;8.742;2023-05-21T09:53:53;12.87;;;11.57;;
4595;SDS011;2310;49.978;8.742;2023-05-21T09:57:56;14.17;;;12.80;;
4595;SDS011;2310;49.978;8.742;2023-05-21T10:01:58;13.40;;;12.10;;
4595;SDS011;2310;49.978;8.742;2023-05-21T10:06:00;13.23;;;11.93;;
4595;SDS011;2310;49.978;8.742;2023-05-21T10:10:02;13.47;;;11.40;;
4595;SDS011;2310;49.978;8.742;2023-05-21T10:14:06;11.70;;;10.60;;
4595;SDS011;2310;49.978;8.742;2023-05-21T10:18:10;13.03;;;11.80;;
4595;SDS011;2310;49.978;8.742;2023-05-21T10:22:13;14.47;;;12.57;;
4595;SDS011;2310;49.978;8.742;2023-05-21T10:26:17;14.60;;;12.30;;
4595;SDS011;2310;49.978;8.742;2023-05-21T10:30:21;13.73;;;12.47;;
4595;SDS011;2310;49.978;8.742;2023-05-21T10:34:24;13.20;;;11.90;;
4595;SDS011;2310;49.978;8.742;2023-05-21T10:38:25;12.97;;;11.83;;
4595;SDS011;2310;49.978;8.742;2023-05-21T10:46:52;14.37;;;13.17;;
4595;SDS011;2310;49.978;8.742;2023-05-21T10:59:40;11.83;;;10.40;;
4595;SDS011;2310;49.978;8.742;2023-05-21T11:03:43;13.33;;;11.90;;
4595;SDS011;2310;49.978;8.742;2023-05-21T11:12:24;13.70;;;12.40;;
4595;SDS011;2310;49.978;8.742;2023-05-21T11:16:27;13.37;;;12.17;;
4595;SDS011;2310;49.978;8.742;2023-05-21T11:20:32;14.47;;;13.00;;
4595;SDS011;2310;49.978;8.742;2023-05-21T11:24:37;14.60;;;13.07;;
4595;SDS011;2310;49.978;8.742;2023-05-21T11:28:39;14.47;;;13.17;;
4595;SDS011;2310;49.978;8.742;2023-05-21T11:33:24;12.80;;;11.70;;
4595;SDS011;2310;49.978;8.742;2023-05-21T11:41:22;12.27;;;11.23;;
4595;SDS011;2310;49.978;8.742;2023-05-21T11:45:27;12.17;;;11.07;;
4595;SDS011;2310;49.978;8.742;2023-05-21T11:49:31;12.50;;;11.30;;
4595;SDS011;2310;49.978;8.742;2023-05-21T11:53:32;12.57;;;11.27;;
4595;SDS011;2310;49.978;8.742;2023-05-21T11:57:34;12.53;;;11.47;;
4595;SDS011;2310;49.978;8.742;2023-05-21T12:01:35;14.63;;;13.20;;
4595;SDS011;2310;49.978;8.742;2023-05-21T12:05:46;15.23;;;14.03;;
4595;SDS011;2310;49.978;8.742;2023-05-21T12:09:49;13.17;;;12.07;;
4595;SDS011;2310;49.978;8.742;2023-05-21T12:13:51;11.50;;;10.30;;
4595;SDS011;2310;49.978;8.742;2023-05-21T12:17:53;12.80;;;11.50;;
4595;SDS011;2310;49.978;8.742;2023-05-21T12:21:55;12.00;;;11.00;;
4595;SDS011;2310;49.978;8.742;2023-05-21T12:25:57;13.30;;;12.20;;
4595;SDS011;2310;49.978;8.742;2023-05-21T12:29:59;13.10;;;12.00;;
4595;SDS011;2310;49.978;8.742;2023-05-21T12:34:00;12.90;;;11.80;;
4595;SDS011;2310;49.978;8.742;2023-05-21T12:38:02;14.00;;;12.70;;
4595;SDS011;2310;49.978;8.742;2023-05-21T12:42:04;13.00;;;10.40;;
4595;SDS011;2310;49.978;8.742;2023-05-21T12:46:09;14.00;;;12.80;;
4595;SDS011;2310;49.978;8.742;2023-05-21T12:50:15;13.10;;;12.00;;
4595;SDS011;2310;49.978;8.742;2023-05-21T12:54:19;14.50;;;13.17;;
4595;SDS011;2310;49.978;8.742;2023-05-21T12:58:24;13.83;;;12.53;;
4595;SDS011;2310;49.978;8.742;2023-05-21T13:02:26;15.73;;;14.43;;
4595;SDS011;2310;49.978;8.742;2023-05-21T13:06:31;12.03;;;11.03;;
4595;SDS011;2310;49.978;8.742;2023-05-21T13:10:34;11.27;;;10.13;;
4595;SDS011;2310;49.978;8.742;2023-05-21T13:14:35;12.33;;;11.23;;
4595;SDS011;2310;49.978;8.742;2023-05-21T13:18:37;12.60;;;11.40;;
4595;SDS011;2310;49.978;8.742;2023-05-21T13:22:39;13.33;;;11.97;;
4595;SDS011;2310;49.978;8.742;2023-05-21T13:26:43;12.93;;;11.70;;
4595;SDS011;2310;49.978;8.742;2023-05-21T13:30:44;13.30;;;12.03;;
4595;SDS011;2310;49.978;8.742;2023-05-21T13:34:45;16.10;;;13.63;;
4595;SDS011;2310;49.978;8.742;2023-05-21T13:38:47;13.90;;;12.30;;
4595;SDS011;2310;49.978;8.742;2023-05-21T13:42:51;14.30;;;12.87;;
4595;SDS011;2310;49.978;8.742;2023-05-21T13:46:52;14.33;;;12.93;;
4595;SDS011;2310;49.978;8.742;2023-05-21T13:50:53;12.37;;;11.30;;
4595;SDS011;2310;49.978;8.742;2023-05-21T13:54:55;14.83;;;13.43;;
4595;SDS011;2310;49.978;8.742;2023-05-21T13:58:58;12.70;;;11.40;;
4595;SDS011;2310;49.978;8.742;2023-05-21T14:02:59;12.37;;;11.17;;
4595;SDS011;2310;49.978;8.742;2023-05-21T14:07:01;12.77;;;11.47;;
4595;SDS011;2310;49.978;8.742;2023-05-21T14:11:02;12.53;;;10.33;;
4595;SDS011;2310;49.978;8.742;2023-05-21T14:15:05;13.83;;;12.53;;
4595;SDS011;2310;49.978;8.742;2023-05-21T14:19:07;12.37;;;11.27;;
4595;SDS011;2310;49.978;8.742;2023-05-21T14:23:08;12.47;;;11.17;;
4595;SDS011;2310;49.978;8.742;2023-05-21T14:27:11;12.00;;;10.80;;
4595;SDS011;2310;49.978;8.742;2023-05-21T14:31:14;12.50;;;11.20;;
4595;SDS011;2310;49.978;8.742;2023-05-21T14:35:15;13.57;;;12.20;;
4595;SDS011;2310;49.978;8.742;2023-05-21T14:39:16;12.93;;;11.83;;
4595;SDS011;2310;49.978;8.742;2023-05-21T14:43:18;15.33;;;11.77;;
4595;SDS011;2310;49.978;8.742;2023-05-21T14:47:19;15.07;;;11.90;;
4595;SDS011;2310;49.978;8.742;2023-05-21T14:51:20;12.53;;;11.40;;
4595;SDS011;2310;49.978;8.742;2023-05-21T14:55:22;13.97;;;12.57;;
4595;SDS011;2310;49.978;8.742;2023-05-21T14:59:23;12.33;;;11.33;;
4595;SDS011;2310;49.978;8.742;2023-05-21T15:03:24;11.70;;;10.60;;
4595;SDS011;2310;49.978;8.742;2023-05-21T15:07:26;11.83;;;10.63;;
4595;SDS011;2310;49.978;8.742;2023-05-21T15:11:27;11.40;;;10.37;;
4595;SDS011;2310;49.978;8.742;2023-05-21T15:15:28;12.30;;;11.10;;
4595;SDS011;2310;49.978;8.742;2023-05-21T15:19:30;11.47;;;10.37;;
4595;SDS011;2310;49.978;8.742;2023-05-21T15:23:31;11.67;;;10.57;;
4595;SDS011;2310;49.978;8.742;2023-05-21T15:27:33;14.33;;;10.27;;
4595;SDS011;2310;49.978;8.742;2023-05-21T15:31:34;11.97;;;10.77;;
4595;SDS011;2310;49.978;8.742;2023-05-21T15:35:35;12.37;;;11.17;;
4595;SDS011;2310;49.978;8.742;2023-05-21T15:39:37;11.97;;;10.87;;
4595;SDS011;2310;49.978;8.742;2023-05-21T15:43:39;11.90;;;10.80;;
4595;SDS011;2310;49.978;8.742;2023-05-21T15:47:42;10.90;;;10.00;;
4595;SDS011;2310;49.978;8.742;2023-05-21T15:51:43;13.10;;;11.30;;
4595;SDS011;2310;49.978;8.742;2023-05-21T15:55:46;11.73;;;10.73;;
4595;SDS011;2310;49.978;8.742;2023-05-21T15:59:47;11.83;;;10.17;;
4595;SDS011;2310;49.978;8.742;2023-05-21T16:03:50;13.77;;;12.47;;
4595;SDS011;2310;49.978;8.742;2023-05-21T16:07:51;12.83;;;11.67;;
4595;SDS011;2310;49.978;8.742;2023-05-21T16:11:53;12.67;;;10.57;;
4595;SDS011;2310;49.978;8.742;2023-05-21T16:15:54;11.90;;;10.70;;
4595;SDS011;2310;49.978;8.742;2023-05-21T16:19:55;11.80;;;10.60;;
4595;SDS011;2310;49.978;8.742;2023-05-21T16:23:57;12.83;;;11.33;;
4595;SDS011;2310;49.978;8.742;2023-05-21T16:27:58;11.60;;;10.40;;
4595;SDS011;2310;49.978;8.742;2023-05-21T16:31:59;11.87;;;10.87;;
4595;SDS011;2310;49.978;8.742;2023-05-21T16:36:01;11.47;;;10.47;;
4595;SDS011;2310;49.978;8.742;2023-05-21T16:40:02;12.30;;;11.00;;
4595;SDS011;2310;49.978;8.742;2023-05-21T16:44:04;11.90;;;10.80;;
4595;SDS011;2310;49.978;8.742;2023-05-21T16:48:06;11.27;;;10.10;;
4595;SDS011;2310;49.978;8.742;2023-05-21T16:52:07;11.80;;;10.60;;
4595;SDS011;2310;49.978;8.742;2023-05-21T16:56:09;12.10;;;11.00;;
4595;SDS011;2310;49.978;8.742;2023-05-21T17:00:12;11.87;;;10.70;;
4595;SDS011;2310;49.978;8.742;2023-05-21T17:04:14;10.90;;;9.90;;
4595;SDS011;2310;49.978;8.742;2023-05-21T17:08:16;10.80;;;9.70;;
4595;SDS011;2310;49.978;8.742;2023-05-21T17:12:18;11.77;;;9.87;;
4595;SDS011;2310;49.978;8.742;2023-05-21T17:16:19;11.73;;;10.63;;
4595;SDS011;2310;49.978;8.742;2023-05-21T17:20:20;10.60;;;9.70;;
4595;SDS011;2310;49.978;8.742;2023-05-21T17:24:22;9.97;;;8.80;;
4595;SDS011;2310;49.978;8.742;2023-05-21T17:28:24;11.40;;;10.40;;
4595;SDS011;2310;49.978;8.742;2023-05-21T17:32:25;10.70;;;9.60;;
4595;SDS011;2310;49.978;8.742;2023-05-21T17:36:27;10.37;;;9.47;;
4595;SDS011;2310;49.978;8.742;2023-05-21T17:40:29;15.00;;;13.70;;
4595;SDS011;2310;49.978;8.742;2023-05-21T17:44:33;12.10;;;10.87;;
4595;SDS011;2310;49.978;8.742;2023-05-21T17:48:36;10.20;;;9.20;;
4595;SDS011;2310;49.978;8.742;2023-05-21T17:52:38;10.90;;;9.40;;
4595;SDS011;2310;49.978;8.742;2023-05-21T17:56:39;12.00;;;10.90;;
4595;SDS011;2310;49.978;8.742;2023-05-21T18:00:41;10.73;;;9.70;;
4595;SDS011;2310;49.978;8.742;2023-05-21T18:04:42;11.93;;;10.93;;
4595;SDS011;2310;49.978;8.742;2023-05-21T18:08:44;11.60;;;10.50;;
4595;SDS011;2310;49.978;8.742;2023-05-21T18:12:45;10.93;;;9.90;;
4595;SDS011;2310;49.978;8.742;2023-05-21T18:16:47;12.20;;;11.10;;
4595;SDS011;2310;49.978;8.742;2023-05-21T18:20:49;11.90;;;10.80;;
4595;SDS011;2310;49.978;8.742;2023-05-21T18:29:12;10.80;;;9.70;;
4595;SDS011;2310;49.978;8.742;2023-05-21T18:33:15;11.40;;;10.30;;
4595;SDS011;2310;49.978;8.742;2023-05-21T18:37:16;10.97;;;9.97;;
4595;SDS011;2310;49.978;8.742;2023-05-21T18:41:21;11.57;;;10.47;;
4595;SDS011;2310;49.978;8.742;2023-05-21T18:45:23;11.53;;;10.33;;
4595;SDS011;2310;49.978;8.742;2023-05-21T18:49:27;10.40;;;9.50;;
4595;SDS011;2310;49.978;8.742;2023-05-21T18:53:35;11.77;;;10.77;;
4595;SDS011;2310;49.978;8.742;2023-05-21T18:57:34;11.77;;;10.57;;
4595;SDS011;2310;49.978;8.742;2023-05-21T19:01:37;13.70;;;12.40;;
4595;SDS011;2310;49.978;8.742;2023-05-21T19:05:39;12.70;;;11.53;;
4595;SDS011;2310;49.978;8.742;2023-05-21T19:09:40;11.00;;;10.00;;
4595;SDS011;2310;49.978;8.742;2023-05-21T19:13:42;12.93;;;11.67;;
4595;SDS011;2310;49.978;8.742;2023-05-21T19:17:43;13.60;;;12.30;;
4595;SDS011;2310;49.978;8.742;2023-05-21T19:21:44;16.13;;;12.90;;
4595;SDS011;2310;49.978;8.742;2023-05-21T19:25:45;12.73;;;11.63;;
4595;SDS011;2310;49.978;8.742;2023-05-21T19:29:46;13.43;;;12.03;;
4595;SDS011;2310;49.978;8.742;2023-05-21T19:33:48;13.77;;;12.37;;
4595;SDS011;2310;49.978;8.742;2023-05-21T19:37:49;13.90;;;12.10;;
4595;SDS011;2310;49.978;8.742;2023-05-21T19:41:51;15.73;;;13.03;;
4595;SDS011;2310;49.978;8.742;2023-05-21T19:45:53;15.47;;;13.53;;
4595;SDS011;2310;49.978;8.742;2023-05-21T19:49:54;15.33;;;13.93;;
4595;SDS011;2310;49.978;8.742;2023-05-21T19:53:56;13.93;;;12.53;;
4595;SDS011;2310;49.978;8.742;2023-05-21T19:57:58;14.77;;;13.30;;
4595;SDS011;2310;49.978;8.742;2023-05-21T20:02:00;36.40;;;32.80;;
4595;SDS011;2310;49.978;8.742;2023-05-21T20:06:01;17.07;;;15.37;;
4595;SDS011;2310;49.978;8.742;2023-05-21T20:10:04;16.87;;;14.00;;
4595;SDS011;2310;49.978;8.742;2023-05-21T20:14:07;16.63;;;14.77;;
4595;SDS011;2310;49.978;8.742;2023-05-21T20:18:08;13.07;;;11.67;;
4595;SDS011;2310;49.978;8.742;2023-05-21T20:22:10;15.43;;;13.93;;
4595;SDS011;2310;49.978;8.742;2023-05-21T20:26:15;14.27;;;12.63;;
4595;SDS011;2310;49.978;8.742;2023-05-21T20:30:20;15.13;;;13.70;;
4595;SDS011;2310;49.978;8.742;2023-05-21T20:34:22;15.47;;;13.97;;
4595;SDS011;2310;49.978;8.742;2023-05-21T20:38:24;14.33;;;13.03;;
4595;SDS011;2310;49.978;8.742;2023-05-21T20:42:26;15.47;;;13.97;;
4595;SDS011;2310;49.978;8.742;2023-05-21T20:46:31;16.13;;;14.60;;
4595;SDS011;2310;49.978;8.742;2023-05-21T20:50:32;15.90;;;14.30;;
4595;SDS011;2310;49.978;8.742;2023-05-21T20:54:34;15.80;;;14.40;;
4595;SDS011;2310;49.978;8.742;2023-05-21T20:58:36;17.50;;;14.60;;
4595;SDS011;2310;49.978;8.742;2023-05-21T21:02:39;16.13;;;14.60;;
4595;SDS011;2310;49.978;8.742;2023-05-21T21:06:40;16.13;;;13.50;;
4595;SDS011;2310;49.978;8.742;2023-05-21T21:10:41;17.47;;;13.90;;
4595;SDS011;2310;49.978;8.742;2023-05-21T21:14:45;17.00;;;15.33;;
4595;SDS011;2310;49.978;8.742;2023-05-21T21:18:46;17.53;;;15.83;;
4595;SDS011;2310;49.978;8.742;2023-05-21T21:22:48;15.83;;;14.27;;
4595;SDS011;2310;49.978;8.742;2023-05-21T21:26:51;15.83;;;14.13;;
4595;SDS011;2310;49.978;8.742;2023-05-21T21:30:52;17.43;;;15.63;;
4595;SDS011;2310;49.978;8.742;2023-05-21T21:34:53;15.53;;;14.13;;
4595;SDS011;2310;49.978;8.742;2023-05-21T21:38:55;17.27;;;15.67;;
4595;SDS011;2310;49.978;8.742;2023-05-21T21:42:57;16.03;;;14.50;;
4595;SDS011;2310;49.978;8.742;2023-05-21T21:46:58;16.33;;;14.80;;
4595;SDS011;2310;49.978;8.742;2023-05-21T21:51:00;18.07;;;16.17;;
4595;SDS011;2310;49.978;8.742;2023-05-21T21:55:01;21.60;;;16.83;;
4595;SDS011;2310;49.978;8.742;2023-05-21T21:59:02;17.60;;;16.00;;
4595;SDS011;2310;49.978;8.742;2023-05-21T22:03:04;19.17;;;16.67;;
4595;SDS011;2310;49.978;8.742;2023-05-21T22:07:05;16.67;;;15.07;;
4595;SDS011;2310;49.978;8.742;2023-05-21T22:11:07;18.27;;;16.47;;
4595;SDS011;2310;49.978;8.742;2023-05-21T22:15:10;16.37;;;14.73;;
4595;SDS011;2310;49.978;8.742;2023-05-21T22:19:13;16.13;;;14.63;;
4595;SDS011;2310;49.978;8.742;2023-05-21T22:23:17;15.70;;;14.00;;
4595;SDS011;2310;49.978;8.742;2023-05-21T22:27:18;17.37;;;15.77;;
4595;SDS011;2310;49.978;8.742;2023-05-21T22:31:20;17.90;;;16.20;;
4595;SDS011;2310;49.978;8.742;2023-05-21T22:35:22;18.60;;;15.73;;
4595;SDS011;2310;49.978;8.742;2023-05-21T22:39:23;16.20;;;14.70;;
4595;SDS011;2310;49.978;8.742;2023-05-21T22:43:24;17.30;;;15.60;;
4595;SDS011;2310;49.978;8.742;2023-05-21T22:47:26;17.30;;;15.67;;
4595;SDS011;2310;49.978;8.742;2023-05-21T22:51:28;16.60;;;14.90;;
4595;SDS011;2310;49.978;8.742;2023-05-21T22:55:31;17.10;;;15.50;;
4595;SDS011;2310;49.978;8.742;2023-05-21T22:59:32;16.80;;;15.10;;
4595;SDS011;2310;49.978;8.742;2023-05-21T23:03:34;15.97;;;14.47;;
4595;SDS011;2310;49.978;8.742;2023-05-21T23:07:35;18.47;;;15.77;;
4595;SDS011;2310;49.978;8.742;2023-05-21T23:11:36;18.47;;;16.57;;
4595;SDS011;2310;49.978;8.742;2023-05-21T23:15:38;18.83;;;17.03;;
4595;SDS011;2310;49.978;8.742;2023-05-21T23:19:39;17.60;;;15.90;;
4595;SDS011;2310;49.978;8.742;2023-05-21T23:23:41;18.07;;;16.27;;
4595;SDS011;2310;49.978;8.742;2023-05-21T23:27:42;18.40;;;16.60;;
4595;SDS011;2310;49.978;8.742;2023-05-21T23:31:44;17.50;;;15.80;;
4595;SDS011;2310;49.978;8.742;2023-05-21T23:35:46;18.00;;;16.30;;
4595;SDS011;2310;49.978;8.742;2023-05-21T23:39:47;18.27;;;16.47;;
4595;SDS011;2310;49.978;8.742;2023-05-21T23:43:49;17.00;;;15.40;;
4595;SDS011;2310;49.978;8.742;2023-05-21T23:47:50;17.17;;;15.60;;
4595;SDS011;2310;49.978;8.742;2023-05-21T23:51:52;19.00;;;17.00;;
4595;SDS011;2310;49.978;8.742;2023-05-21T23:55:53;17.40;;;15.80;;
4595;SDS011;2310;49.978;8.742;2023-05-21T23:59:55;19.03;;;17.10;;
